createdAt,value
2018-09-18T00:02:14.817Z,14.30
2018-09-18T00:04:43.102Z,14.40
2018-09-18T00:07:13.214Z,14.40
2018-09-18T00:09:41.480Z,14.30
2018-09-18T00:12:09.840Z,14.10
2018-09-18T00:14:38.051Z,14.10
2018-09-18T00:17:06.218Z,14.00
2018-09-18T00:19:34.411Z,13.90
2018-09-18T00:22:02.643Z,13.70
2018-09-18T00:24:30.853Z,13.60
2018-09-18T00:26:59.105Z,13.60
2018-09-18T00:29:27.342Z,13.60
2018-09-18T00:31:55.578Z,13.70
2018-09-18T00:34:23.807Z,13.70
2018-09-18T00:36:52.081Z,13.80
2018-09-18T00:39:20.301Z,13.80
2018-09-18T00:41:48.580Z,13.80
2018-09-18T00:44:16.842Z,13.90
2018-09-18T00:46:45.038Z,13.90
2018-09-18T00:49:13.327Z,13.90
2018-09-18T00:51:41.587Z,13.80
2018-09-18T00:54:09.769Z,13.80
2018-09-18T00:56:38.021Z,13.80
2018-09-18T00:59:06.223Z,13.70
2018-09-18T01:01:34.407Z,13.60
2018-09-18T01:04:02.627Z,13.60
2018-09-18T01:06:30.838Z,13.40
2018-09-18T01:08:59.073Z,13.40
2018-09-18T01:11:27.276Z,13.40
2018-09-18T01:13:55.648Z,13.40
2018-09-18T01:16:23.845Z,13.30
2018-09-18T01:18:52.013Z,13.30
2018-09-18T01:21:20.257Z,13.40
2018-09-18T01:23:48.365Z,13.50
2018-09-18T01:26:16.511Z,13.40
2018-09-18T01:28:44.662Z,13.40
2018-09-18T01:31:12.868Z,13.40
2018-09-18T01:33:41.026Z,13.40
2018-09-18T01:36:09.180Z,13.40
2018-09-18T01:38:37.367Z,13.40
2018-09-18T01:41:05.770Z,13.30
2018-09-18T01:43:34.004Z,13.00
2018-09-18T01:46:02.145Z,13.00
2018-09-18T01:48:30.342Z,13.00
2018-09-18T01:50:58.514Z,13.00
2018-09-18T01:53:26.719Z,13.10
2018-09-18T01:55:54.887Z,13.10
2018-09-18T01:58:23.035Z,13.00
2018-09-18T02:00:51.189Z,12.90
2018-09-18T02:03:19.369Z,12.90
2018-09-18T02:05:47.542Z,13.00
2018-09-18T02:08:15.718Z,13.00
2018-09-18T02:10:43.886Z,13.00
2018-09-18T02:13:12.017Z,13.10
2018-09-18T02:15:42.178Z,13.20
2018-09-18T02:18:10.328Z,13.20
2018-09-18T02:20:38.521Z,13.20
2018-09-18T02:23:06.666Z,13.30
2018-09-18T02:25:34.802Z,13.30
2018-09-18T02:28:02.954Z,13.30
2018-09-18T02:30:31.106Z,13.30
2018-09-18T02:32:59.277Z,13.20
2018-09-18T02:35:27.481Z,13.10
2018-09-18T02:37:55.632Z,13.00
2018-09-18T02:40:23.814Z,12.90
2018-09-18T02:42:51.979Z,13.00
2018-09-18T02:45:20.138Z,13.00
2018-09-18T02:47:48.298Z,13.00
2018-09-18T02:50:16.454Z,13.00
2018-09-18T02:52:44.606Z,13.00
2018-09-18T02:55:12.784Z,12.90
2018-09-18T02:57:41.142Z,12.90
2018-09-18T03:00:09.314Z,12.80
2018-09-18T03:02:37.467Z,12.70
2018-09-18T03:05:05.642Z,12.60
2018-09-18T03:07:34.043Z,12.40
2018-09-18T03:10:02.189Z,12.30
2018-09-18T03:12:30.364Z,12.30
2018-09-18T03:14:58.496Z,12.20
2018-09-18T03:17:26.679Z,12.30
2018-09-18T03:19:54.851Z,12.30
2018-09-18T03:22:23.082Z,12.30
2018-09-18T03:24:51.242Z,12.20
2018-09-18T03:27:19.423Z,12.20
2018-09-18T03:29:47.522Z,12.30
2018-09-18T03:32:15.670Z,12.30
2018-09-18T03:34:43.879Z,12.40
2018-09-18T03:37:12.046Z,12.30
2018-09-18T03:39:40.186Z,12.40
2018-09-18T03:42:08.329Z,12.40
2018-09-18T03:44:36.488Z,12.40
2018-09-18T03:47:04.634Z,12.40
2018-09-18T03:49:32.790Z,12.30
2018-09-18T03:52:01.027Z,12.30
2018-09-18T03:54:29.198Z,12.30
2018-09-18T03:56:57.523Z,12.30
2018-09-18T03:59:25.765Z,12.30
2018-09-18T04:01:53.905Z,12.20
2018-09-18T04:04:22.090Z,12.30
2018-09-18T04:06:50.291Z,12.30
2018-09-18T04:09:18.468Z,12.20
2018-09-18T04:11:46.646Z,12.10
2018-09-18T04:14:14.822Z,12.10
2018-09-18T04:16:42.978Z,12.20
2018-09-18T04:19:11.175Z,12.10
2018-09-18T04:21:42.316Z,12.00
2018-09-18T04:24:10.505Z,12.00
2018-09-18T04:26:39.995Z,12.00
2018-09-18T04:29:08.732Z,12.00
2018-09-18T04:31:37.796Z,12.00
2018-09-18T04:34:05.993Z,12.10
2018-09-18T04:36:34.175Z,12.10
2018-09-18T04:39:02.770Z,12.10
2018-09-18T04:41:30.942Z,12.10
2018-09-18T04:43:59.130Z,12.00
2018-09-18T04:46:27.289Z,12.10
2018-09-18T04:48:55.491Z,12.00
2018-09-18T04:51:23.659Z,12.00
2018-09-18T04:53:51.877Z,12.10
2018-09-18T04:56:20.099Z,12.10
2018-09-18T04:58:48.274Z,12.10
2018-09-18T05:01:16.426Z,12.10
2018-09-18T05:03:44.618Z,12.10
2018-09-18T05:06:12.774Z,12.10
2018-09-18T05:08:40.955Z,12.10
2018-09-18T05:11:09.116Z,12.10
2018-09-18T05:13:37.313Z,12.10
2018-09-18T05:16:05.687Z,12.20
2018-09-18T05:18:33.865Z,12.20
2018-09-18T05:21:02.039Z,12.20
2018-09-18T05:23:30.185Z,12.20
2018-09-18T05:25:58.323Z,12.30
2018-09-18T05:28:26.513Z,12.30
2018-09-18T05:30:57.707Z,12.50
2018-09-18T05:33:25.909Z,12.60
2018-09-18T05:35:54.113Z,12.70
2018-09-18T05:38:22.266Z,12.80
2018-09-18T05:40:50.425Z,12.80
2018-09-18T05:43:18.581Z,12.90
2018-09-18T05:45:46.770Z,13.10
2018-09-18T05:48:15.008Z,13.10
2018-09-18T05:50:43.542Z,13.30
2018-09-18T05:53:12.331Z,13.60
2018-09-18T05:55:40.494Z,13.90
2018-09-18T05:58:08.667Z,14.00
2018-09-18T06:00:36.859Z,14.30
2018-09-18T06:03:05.130Z,14.10
2018-09-18T06:05:33.283Z,14.30
2018-09-18T06:08:01.430Z,14.50
2018-09-18T06:10:29.619Z,14.90
2018-09-18T06:12:57.839Z,15.20
2018-09-18T06:15:26.056Z,15.20
2018-09-18T06:17:54.267Z,15.30
2018-09-18T06:20:22.466Z,15.50
2018-09-18T06:22:57.467Z,15.50
2018-09-18T06:25:25.822Z,15.90
2018-09-18T06:27:54.151Z,16.30
2018-09-18T06:30:22.449Z,16.40
2018-09-18T06:32:50.693Z,16.60
2018-09-18T06:35:18.984Z,16.80
2018-09-18T06:37:47.255Z,16.90
2018-09-18T06:40:15.564Z,17.20
2018-09-18T06:42:43.807Z,17.50
2018-09-18T06:45:12.103Z,17.70
2018-09-18T06:47:40.418Z,18.00
2018-09-18T06:50:08.666Z,18.00
2018-09-18T06:52:36.943Z,17.80
2018-09-18T06:55:05.274Z,17.90
2018-09-18T06:57:33.512Z,18.00
2018-09-18T07:00:01.855Z,18.10
2018-09-18T07:02:30.067Z,18.10
2018-09-18T07:04:58.273Z,18.40
2018-09-18T07:07:26.466Z,18.70
2018-09-18T07:09:54.645Z,18.70
2018-09-18T07:12:22.919Z,18.80
2018-09-18T07:14:51.126Z,19.00
2018-09-18T07:17:19.342Z,19.20
2018-09-18T07:19:47.558Z,19.30
2018-09-18T07:22:15.758Z,19.50
2018-09-18T07:24:44.108Z,19.60
2018-09-18T07:27:12.386Z,19.50
2018-09-18T07:29:40.627Z,19.60
2018-09-18T07:32:08.878Z,19.80
2018-09-18T07:34:37.126Z,20.00
2018-09-18T07:37:05.318Z,20.40
2018-09-18T07:39:33.568Z,20.50
2018-09-18T07:42:01.883Z,20.50
2018-09-18T07:44:30.074Z,20.30
2018-09-18T07:46:58.381Z,20.20
2018-09-18T07:49:26.614Z,20.20
2018-09-18T07:51:54.830Z,20.40
2018-09-18T07:54:23.042Z,20.50
2018-09-18T07:56:51.266Z,20.80
2018-09-18T07:59:19.482Z,20.90
2018-09-18T08:01:47.733Z,21.20
2018-09-18T08:04:16.052Z,21.50
2018-09-18T08:06:44.358Z,21.50
2018-09-18T08:09:12.581Z,21.50
2018-09-18T08:11:41.404Z,21.80
2018-09-18T08:14:09.683Z,21.80
2018-09-18T08:16:37.927Z,22.00
2018-09-18T08:19:06.357Z,22.30
2018-09-18T08:21:34.866Z,22.40
2018-09-18T08:24:03.186Z,22.30
2018-09-18T08:26:31.513Z,22.50
2018-09-18T08:29:00.019Z,22.40
2018-09-18T08:31:28.310Z,22.70
2018-09-18T08:33:56.948Z,22.90
2018-09-18T08:36:25.106Z,23.10
2018-09-18T08:38:53.293Z,23.50
2018-09-18T08:41:21.563Z,23.70
2018-09-18T08:43:49.972Z,24.20
2018-09-18T08:46:18.187Z,24.40
2018-09-18T08:48:52.057Z,24.50
2018-09-18T08:51:21.848Z,24.70
2018-09-18T08:53:50.165Z,24.50
2018-09-18T08:56:18.449Z,24.40
2018-09-18T08:58:46.947Z,24.40
2018-09-18T09:01:15.453Z,24.60
2018-09-18T09:03:43.730Z,25.00
2018-09-18T09:06:11.963Z,25.50
2018-09-18T09:08:40.230Z,25.70
2018-09-18T09:11:08.334Z,25.80
2018-09-18T09:13:36.560Z,25.90
2018-09-18T09:16:04.771Z,26.00
2018-09-18T09:18:33.319Z,26.30
2018-09-18T09:21:01.563Z,26.70
2018-09-18T09:23:30.386Z,26.90
2018-09-18T09:25:58.611Z,27.00
2018-09-18T09:28:26.804Z,26.90
2018-09-18T09:30:54.971Z,27.10
2018-09-18T09:33:23.126Z,27.50
2018-09-18T09:35:51.305Z,27.90
2018-09-18T09:38:19.530Z,28.30
2018-09-18T09:40:47.772Z,28.40
2018-09-18T09:43:16.500Z,28.50
2018-09-18T09:45:44.793Z,28.70
2018-09-18T09:48:12.960Z,28.80
2018-09-18T09:50:41.126Z,28.80
2018-09-18T09:53:09.348Z,29.00
2018-09-18T09:55:37.523Z,29.10
2018-09-18T09:58:05.691Z,29.50
2018-09-18T10:00:39.251Z,29.70
2018-09-18T10:03:07.405Z,29.50
2018-09-18T10:05:36.584Z,29.90
2018-09-18T10:08:04.824Z,30.20
2018-09-18T10:10:33.072Z,30.40
2018-09-18T10:13:01.191Z,30.30
2018-09-18T10:15:29.326Z,30.20
2018-09-18T10:17:57.569Z,30.30
2018-09-18T10:20:25.670Z,30.40
2018-09-18T10:22:53.898Z,30.80
2018-09-18T10:25:22.062Z,30.90
2018-09-18T10:27:51.059Z,30.90
2018-09-18T10:30:19.248Z,31.00
2018-09-18T10:32:47.547Z,31.10
2018-09-18T10:35:15.664Z,31.10
2018-09-18T10:37:43.798Z,30.90
2018-09-18T10:40:11.934Z,30.50
2018-09-18T10:42:40.062Z,30.40
2018-09-18T10:45:08.581Z,30.00
2018-09-18T10:47:36.842Z,29.80
2018-09-18T10:50:05.231Z,29.30
2018-09-18T10:52:33.414Z,29.30
2018-09-18T10:55:01.554Z,29.30
2018-09-18T10:57:29.778Z,29.40
2018-09-18T10:59:57.987Z,29.80
2018-09-18T11:02:26.119Z,30.00
2018-09-18T11:04:54.275Z,30.10
2018-09-18T11:07:22.444Z,30.10
2018-09-18T11:09:50.656Z,30.20
2018-09-18T11:12:18.785Z,30.50
2018-09-18T11:14:46.974Z,30.80
2018-09-18T11:17:15.159Z,31.00
2018-09-18T11:19:43.302Z,30.70
2018-09-18T11:22:11.621Z,30.60
2018-09-18T11:24:39.809Z,30.80
2018-09-18T11:27:07.935Z,31.00
2018-09-18T11:29:36.324Z,31.00
2018-09-18T11:32:04.514Z,31.10
2018-09-18T11:34:32.707Z,31.20
2018-09-18T11:37:00.853Z,31.20
2018-09-18T11:39:29.009Z,31.40
2018-09-18T11:41:57.161Z,31.50
2018-09-18T11:44:25.464Z,31.90
2018-09-18T11:46:53.662Z,31.80
2018-09-18T11:49:21.874Z,31.80
2018-09-18T11:51:50.052Z,31.60
2018-09-18T11:54:18.219Z,31.60
2018-09-18T11:56:46.465Z,31.40
2018-09-18T11:59:14.533Z,31.20
2018-09-18T12:01:42.706Z,31.30
2018-09-18T12:04:10.894Z,31.40
2018-09-18T12:06:39.038Z,31.40
2018-09-18T12:09:08.426Z,31.50
2018-09-18T12:11:36.531Z,31.70
2018-09-18T12:14:04.834Z,31.80
2018-09-18T12:16:33.013Z,32.00
2018-09-18T12:19:01.339Z,32.30
2018-09-18T12:21:29.534Z,32.00
2018-09-18T12:23:57.694Z,31.80
2018-09-18T12:26:25.820Z,31.60
2018-09-18T12:28:53.979Z,31.50
2018-09-18T12:31:22.226Z,31.40
2018-09-18T12:33:50.456Z,31.40
2018-09-18T12:36:18.645Z,31.60
2018-09-18T12:38:46.947Z,31.50
2018-09-18T12:41:15.162Z,31.50
2018-09-18T12:43:43.285Z,31.50
2018-09-18T12:46:11.458Z,31.60
2018-09-18T12:48:39.738Z,31.70
2018-09-18T12:51:07.903Z,31.50
2018-09-18T12:53:36.143Z,31.80
2018-09-18T12:56:04.321Z,31.70
2018-09-18T12:58:32.543Z,31.50
2018-09-18T13:01:00.614Z,31.50
2018-09-18T13:03:28.825Z,31.60
2018-09-18T13:05:57.035Z,31.50
2018-09-18T13:08:25.625Z,31.10
2018-09-18T13:10:53.807Z,30.80
2018-09-18T13:13:21.974Z,30.70
2018-09-18T13:15:50.234Z,30.50
2018-09-18T13:18:18.418Z,30.30
2018-09-18T13:20:46.590Z,30.20
2018-09-18T13:23:14.774Z,30.10
2018-09-18T13:25:42.929Z,29.90
2018-09-18T13:28:11.175Z,29.70
2018-09-18T13:30:39.347Z,29.60
2018-09-18T13:33:07.535Z,29.60
2018-09-18T13:35:35.678Z,29.60
2018-09-18T13:38:03.830Z,29.70
2018-09-18T13:40:32.018Z,29.70
2018-09-18T13:43:00.176Z,29.70
2018-09-18T13:45:28.349Z,29.90
2018-09-18T13:47:56.621Z,30.30
2018-09-18T13:50:24.918Z,30.60
2018-09-18T13:52:52.992Z,30.60
2018-09-18T13:55:21.159Z,30.50
2018-09-18T13:57:49.364Z,30.60
2018-09-18T14:00:17.539Z,30.80
2018-09-18T14:02:45.750Z,30.80
2018-09-18T14:05:13.965Z,30.70
2018-09-18T14:07:42.215Z,30.60
2018-09-18T14:10:12.661Z,30.40
2018-09-18T14:12:40.812Z,30.10
2018-09-18T14:15:09.042Z,29.90
2018-09-18T14:17:37.167Z,29.80
2018-09-18T14:20:05.957Z,29.80
2018-09-18T14:22:34.322Z,29.70
2018-09-18T14:25:02.495Z,29.70
2018-09-18T14:27:30.687Z,29.50
2018-09-18T14:29:58.835Z,29.40
2018-09-18T14:32:27.329Z,29.30
2018-09-18T14:34:55.842Z,29.40
2018-09-18T14:37:23.963Z,29.50
2018-09-18T14:39:52.108Z,29.70
2018-09-18T14:42:20.235Z,29.90
2018-09-18T14:44:48.374Z,30.10
2018-09-18T14:47:16.539Z,30.10
2018-09-18T14:49:44.690Z,29.90
2018-09-18T14:52:12.836Z,29.80
2018-09-18T14:54:40.967Z,29.90
2018-09-18T14:57:09.248Z,29.70
2018-09-18T14:59:37.401Z,29.70
2018-09-18T15:02:05.943Z,29.70
2018-09-18T15:04:34.093Z,29.80
2018-09-18T15:07:02.330Z,29.90
2018-09-18T15:09:32.890Z,30.00
2018-09-18T15:12:01.010Z,30.10
2018-09-18T15:14:29.244Z,30.00
2018-09-18T15:16:57.383Z,30.10
2018-09-18T15:19:25.549Z,30.10
2018-09-18T15:21:53.744Z,30.00
2018-09-18T15:24:21.870Z,29.80
2018-09-18T15:26:50.024Z,29.90
2018-09-18T15:29:18.165Z,29.90
2018-09-18T15:31:46.362Z,29.90
2018-09-18T15:34:14.595Z,29.90
2018-09-18T15:36:42.770Z,29.90
2018-09-18T15:39:10.939Z,29.80
2018-09-18T15:41:39.130Z,29.70
2018-09-18T15:44:07.297Z,29.60
2018-09-18T15:46:35.698Z,29.50
2018-09-18T15:49:03.858Z,29.50
2018-09-18T15:51:32.218Z,29.40
2018-09-18T15:54:00.427Z,29.40
2018-09-18T15:56:28.570Z,29.40
2018-09-18T15:58:56.743Z,29.40
2018-09-18T16:01:24.945Z,29.30
2018-09-18T16:03:53.068Z,29.30
2018-09-18T16:06:21.185Z,29.20
2018-09-18T16:08:49.339Z,29.00
2018-09-18T16:11:17.478Z,29.00
2018-09-18T16:13:45.704Z,28.90
2018-09-18T16:16:13.809Z,28.80
2018-09-18T16:18:41.947Z,28.70
2018-09-18T16:21:10.107Z,28.50
2018-09-18T16:23:38.247Z,28.40
2018-09-18T16:26:06.454Z,28.30
2018-09-18T16:28:34.626Z,28.20
2018-09-18T16:31:02.813Z,28.10
2018-09-18T16:33:30.970Z,28.00
2018-09-18T16:35:59.142Z,27.90
2018-09-18T16:38:27.302Z,27.80
2018-09-18T16:40:55.528Z,27.80
2018-09-18T16:43:23.669Z,27.80
2018-09-18T16:45:51.983Z,27.70
2018-09-18T16:48:20.145Z,27.70
2018-09-18T16:50:48.237Z,27.50
2018-09-18T16:53:16.386Z,27.50
2018-09-18T16:55:44.546Z,27.40
2018-09-18T16:58:12.719Z,27.20
2018-09-18T17:00:40.955Z,27.00
2018-09-18T17:03:09.132Z,26.90
2018-09-18T17:05:37.288Z,26.70
2018-09-18T17:08:05.449Z,26.60
2018-09-18T17:10:33.891Z,26.50
2018-09-18T17:13:01.970Z,26.40
2018-09-18T17:15:30.119Z,26.20
2018-09-18T17:17:58.351Z,26.10
2018-09-18T17:20:26.507Z,26.00
2018-09-18T17:22:54.792Z,25.80
2018-09-18T17:25:23.027Z,25.70
2018-09-18T17:27:51.319Z,25.50
2018-09-18T17:30:19.660Z,25.40
2018-09-18T17:32:47.952Z,25.30
2018-09-18T17:35:16.444Z,25.20
2018-09-18T17:37:50.111Z,25.10
2018-09-18T17:40:24.672Z,24.70
2018-09-18T17:42:53.545Z,24.10
2018-09-18T17:45:23.360Z,23.60
2018-09-18T17:47:53.600Z,23.20
2018-09-18T17:50:23.214Z,22.90
2018-09-18T17:52:51.970Z,22.70
2018-09-18T17:55:21.075Z,22.50
2018-09-18T17:57:50.083Z,21.90
2018-09-18T18:00:18.822Z,21.10
2018-09-18T18:02:47.821Z,20.40
2018-09-18T18:05:16.605Z,20.10
2018-09-18T18:07:45.445Z,19.70
2018-09-18T18:10:14.355Z,19.50
2018-09-18T18:12:42.883Z,19.50
2018-09-18T18:15:11.935Z,19.60
2018-09-18T18:17:41.011Z,19.70
2018-09-18T18:20:09.826Z,19.70
2018-09-18T18:22:38.753Z,19.80
2018-09-18T18:25:07.993Z,19.80
2018-09-18T18:27:37.181Z,19.80
2018-09-18T18:30:06.570Z,19.70
2018-09-18T18:32:37.330Z,19.10
2018-09-18T18:38:04.070Z,18.50
2018-09-18T18:40:33.119Z,18.50
2018-09-18T18:43:02.123Z,18.50
2018-09-18T18:45:30.819Z,18.60
2018-09-18T18:48:00.214Z,18.60
2018-09-18T18:50:29.318Z,18.70
2018-09-18T18:52:58.050Z,18.80
2018-09-18T18:55:27.210Z,18.80
2018-09-18T18:57:57.035Z,18.70
2018-09-18T19:00:26.269Z,18.50
2018-09-18T19:02:55.384Z,18.20
2018-09-18T19:05:24.431Z,18.00
2018-09-18T19:07:53.497Z,18.00
2018-09-18T19:10:22.789Z,18.00
2018-09-18T19:12:52.821Z,18.10
2018-09-18T19:15:22.076Z,18.20
2018-09-18T19:17:51.283Z,18.00
2018-09-18T19:20:20.122Z,17.90
2018-09-18T19:22:49.191Z,17.80
2018-09-18T19:25:18.225Z,17.80
2018-09-18T19:27:47.438Z,17.80
2018-09-18T19:30:16.324Z,17.80
2018-09-18T19:32:45.516Z,17.90
2018-09-18T19:35:14.454Z,18.00
2018-09-18T19:37:43.459Z,18.10
2018-09-18T19:40:12.365Z,18.10
2018-09-18T19:42:41.863Z,18.20
2018-09-18T19:45:10.976Z,18.20
2018-09-18T19:47:39.710Z,18.20
2018-09-18T19:50:15.846Z,18.10
2018-09-18T19:52:45.390Z,18.00
2018-09-18T19:55:14.616Z,17.80
2018-09-18T19:57:45.325Z,17.70
2018-09-18T20:00:14.425Z,17.70
2018-09-18T20:02:43.821Z,17.60
2018-09-18T20:05:13.197Z,17.50
2018-09-18T20:07:42.037Z,17.40
2018-09-18T20:10:13.861Z,17.20
2018-09-18T20:25:52.487Z,17.20
2018-09-18T20:28:20.742Z,16.90
2018-09-18T20:30:49.043Z,16.90
2018-09-18T20:33:17.343Z,16.90
2018-09-18T20:35:46.125Z,16.90
2018-09-18T20:38:14.190Z,17.00
2018-09-18T20:40:42.456Z,17.00
2018-09-18T20:43:10.700Z,17.10
2018-09-18T20:45:38.935Z,17.10
2018-09-18T20:48:07.136Z,17.10
2018-09-18T20:50:35.433Z,17.10
2018-09-18T20:53:03.558Z,17.10
2018-09-18T20:55:31.741Z,17.10
2018-09-18T20:58:00.727Z,17.10
2018-09-18T21:03:28.308Z,17.00
2018-09-18T21:05:56.550Z,17.00
2018-09-18T21:08:28.350Z,16.90
2018-09-18T21:10:56.497Z,16.90
2018-09-18T21:13:24.763Z,16.90
2018-09-18T21:15:54.203Z,16.90
2018-09-18T21:18:22.382Z,16.80
2018-09-18T21:20:50.690Z,16.80
2018-09-18T21:23:19.211Z,16.80
2018-09-18T21:26:05.348Z,16.70
2018-09-18T21:28:33.663Z,16.70
2018-09-18T21:31:02.301Z,16.60
2018-09-18T21:33:30.897Z,16.50
2018-09-18T21:35:59.487Z,16.50
2018-09-18T21:38:27.722Z,16.40
2018-09-18T21:40:56.151Z,16.40
2018-09-18T21:43:24.622Z,16.40
2018-09-18T21:45:52.898Z,16.40
2018-09-18T21:48:21.138Z,16.40
2018-09-18T21:50:49.307Z,16.40
2018-09-18T21:53:17.539Z,16.40
2018-09-18T21:55:46.144Z,16.30
2018-09-18T21:58:14.584Z,16.30
2018-09-18T22:00:43.130Z,16.30
2018-09-18T22:03:11.782Z,16.30
2018-09-18T22:05:39.959Z,16.30
2018-09-18T22:08:08.175Z,16.20
2018-09-18T22:10:36.553Z,16.20
2018-09-18T22:13:04.739Z,16.10
2018-09-18T22:15:33.422Z,16.20
2018-09-18T22:18:01.595Z,16.20
2018-09-18T22:20:29.838Z,16.10
2018-09-18T22:22:58.115Z,16.10
2018-09-18T22:25:26.394Z,16.10
2018-09-18T22:27:54.654Z,16.10
2018-09-18T22:30:22.895Z,16.20
2018-09-18T22:32:51.144Z,16.10
2018-09-18T22:35:19.400Z,16.10
2018-09-18T22:37:47.571Z,16.00
2018-09-18T22:40:15.879Z,15.80
2018-09-18T22:42:44.210Z,15.80
2018-09-18T22:45:12.484Z,15.80
2018-09-18T22:47:40.724Z,15.70
2018-09-18T22:50:08.948Z,15.70
2018-09-18T22:52:37.186Z,15.60
2018-09-18T22:55:05.407Z,15.50
2018-09-18T22:57:33.622Z,15.50
2018-09-18T23:00:04.831Z,15.50
2018-09-18T23:02:33.054Z,15.60
2018-09-18T23:05:01.360Z,15.80
2018-09-18T23:07:29.578Z,15.80
2018-09-18T23:09:57.812Z,15.80
2018-09-18T23:12:26.187Z,15.80
2018-09-18T23:14:54.385Z,15.80
2018-09-18T23:17:22.823Z,15.60
2018-09-18T23:19:51.071Z,15.60
2018-09-18T23:22:19.281Z,15.60
2018-09-18T23:24:47.518Z,15.60
2018-09-18T23:27:15.895Z,15.60
2018-09-18T23:29:44.110Z,15.60
2018-09-18T23:32:12.480Z,15.60
2018-09-18T23:34:40.699Z,15.60
2018-09-18T23:37:09.082Z,15.70
2018-09-18T23:39:37.248Z,15.70
2018-09-18T23:42:05.449Z,15.70
2018-09-18T23:44:33.599Z,15.80
2018-09-18T23:47:01.842Z,15.80
2018-09-18T23:49:30.155Z,15.80
2018-09-18T23:51:58.323Z,15.80
2018-09-18T23:54:26.835Z,15.80
2018-09-18T23:56:54.978Z,15.80
2018-09-18T23:59:23.256Z,15.80
